sensor_id;sensor_type;location;lat;lon;timestamp;P1;durP1;ratioP1;P2;durP2;ratioP2
54917;SDS011;40818;50.562;7.454;2024-02-21T00:06:54;12.93;;;1.40;;
54917;SDS011;40818;50.562;7.454;2024-02-21T00:17:00;14.13;;;2.10;;
54917;SDS011;40818;50.562;7.454;2024-02-21T00:27:04;9.77;;;1.70;;
54917;SDS011;40818;50.562;7.454;2024-02-21T00:37:10;8.73;;;1.48;;
54917;SDS011;40818;50.562;7.454;2024-02-21T00:47:14;11.93;;;1.88;;
54917;SDS011;40818;50.562;7.454;2024-02-21T00:57:20;17.63;;;1.75;;
54917;SDS011;40818;50.562;7.454;2024-02-21T01:07:24;11.32;;;1.83;;
54917;SDS011;40818;50.562;7.454;2024-02-21T01:17:30;11.43;;;1.95;;
54917;SDS011;40818;50.562;7.454;2024-02-21T01:27:33;13.20;;;1.90;;
54917;SDS011;40818;50.562;7.454;2024-02-21T01:37:39;10.32;;;2.33;;
54917;SDS011;40818;50.562;7.454;2024-02-21T01:47:42;16.25;;;2.35;;
54917;SDS011;40818;50.562;7.454;2024-02-21T01:57:49;12.57;;;1.63;;
54917;SDS011;40818;50.562;7.454;2024-02-21T02:07:52;13.52;;;1.55;;
54917;SDS011;40818;50.562;7.454;2024-02-21T02:17:58;9.55;;;1.48;;
54917;SDS011;40818;50.562;7.454;2024-02-21T02:28:05;6.00;;;1.50;;
54917;SDS011;40818;50.562;7.454;2024-02-21T02:38:09;9.43;;;1.60;;
54917;SDS011;40818;50.562;7.454;2024-02-21T02:48:16;8.98;;;1.83;;
54917;SDS011;40818;50.562;7.454;2024-02-21T02:58:20;16.20;;;1.80;;
54917;SDS011;40818;50.562;7.454;2024-02-21T03:08:26;6.35;;;1.13;;
54917;SDS011;40818;50.562;7.454;2024-02-21T03:18:30;7.35;;;1.73;;
54917;SDS011;40818;50.562;7.454;2024-02-21T03:28:36;10.63;;;1.42;;
54917;SDS011;40818;50.562;7.454;2024-02-21T03:38:40;10.82;;;1.52;;
54917;SDS011;40818;50.562;7.454;2024-02-21T03:48:46;14.30;;;1.15;;
54917;SDS011;40818;50.562;7.454;2024-02-21T03:58:49;8.45;;;1.17;;
54917;SDS011;40818;50.562;7.454;2024-02-21T04:08:56;9.68;;;1.25;;
54917;SDS011;40818;50.562;7.454;2024-02-21T04:19:00;12.18;;;1.35;;
54917;SDS011;40818;50.562;7.454;2024-02-21T04:29:06;8.77;;;1.23;;
54917;SDS011;40818;50.562;7.454;2024-02-21T04:39:09;14.73;;;2.33;;
54917;SDS011;40818;50.562;7.454;2024-02-21T04:49:15;12.20;;;1.20;;
54917;SDS011;40818;50.562;7.454;2024-02-21T04:59:19;16.13;;;1.35;;
54917;SDS011;40818;50.562;7.454;2024-02-21T05:09:25;12.13;;;1.48;;
54917;SDS011;40818;50.562;7.454;2024-02-21T05:19:28;13.80;;;1.02;;
54917;SDS011;40818;50.562;7.454;2024-02-21T05:29:35;10.38;;;1.23;;
54917;SDS011;40818;50.562;7.454;2024-02-21T05:39:38;9.65;;;1.10;;
54917;SDS011;40818;50.562;7.454;2024-02-21T05:49:44;7.18;;;1.00;;
54917;SDS011;40818;50.562;7.454;2024-02-21T05:59:47;6.80;;;0.80;;
54917;SDS011;40818;50.562;7.454;2024-02-21T06:09:53;8.50;;;0.80;;
54917;SDS011;40818;50.562;7.454;2024-02-21T06:19:57;8.00;;;1.08;;
54917;SDS011;40818;50.562;7.454;2024-02-21T06:30:03;7.45;;;1.00;;
54917;SDS011;40818;50.562;7.454;2024-02-21T06:40:08;12.07;;;1.42;;
54917;SDS011;40818;50.562;7.454;2024-02-21T06:50:14;10.55;;;1.02;;
54917;SDS011;40818;50.562;7.454;2024-02-21T07:00:19;11.00;;;1.17;;
54917;SDS011;40818;50.562;7.454;2024-02-21T07:10:25;8.70;;;0.85;;
54917;SDS011;40818;50.562;7.454;2024-02-21T07:20:29;15.38;;;1.15;;
54917;SDS011;40818;50.562;7.454;2024-02-21T07:30:36;15.50;;;1.10;;
54917;SDS011;40818;50.562;7.454;2024-02-21T07:40:39;5.88;;;1.10;;
54917;SDS011;40818;50.562;7.454;2024-02-21T07:50:47;8.63;;;0.95;;
54917;SDS011;40818;50.562;7.454;2024-02-21T08:00:50;7.55;;;1.00;;
54917;SDS011;40818;50.562;7.454;2024-02-21T08:10:59;13.95;;;1.00;;
54917;SDS011;40818;50.562;7.454;2024-02-21T08:21:03;8.73;;;1.25;;
54917;SDS011;40818;50.562;7.454;2024-02-21T08:31:09;3.78;;;0.88;;
54917;SDS011;40818;50.562;7.454;2024-02-21T08:41:13;7.90;;;0.90;;
54917;SDS011;40818;50.562;7.454;2024-02-21T08:51:20;8.35;;;1.17;;
54917;SDS011;40818;50.562;7.454;2024-02-21T09:01:23;9.70;;;1.55;;
54917;SDS011;40818;50.562;7.454;2024-02-21T09:11:29;6.63;;;1.10;;
54917;SDS011;40818;50.562;7.454;2024-02-21T09:21:33;11.27;;;1.15;;
54917;SDS011;40818;50.562;7.454;2024-02-21T09:31:39;9.50;;;1.30;;
54917;SDS011;40818;50.562;7.454;2024-02-21T09:41:44;10.70;;;1.10;;
54917;SDS011;40818;50.562;7.454;2024-02-21T09:51:55;5.68;;;1.00;;
54917;SDS011;40818;50.562;7.454;2024-02-21T10:01:59;13.90;;;1.10;;
54917;SDS011;40818;50.562;7.454;2024-02-21T10:12:12;8.50;;;0.82;;
54917;SDS011;40818;50.562;7.454;2024-02-21T10:22:19;7.15;;;0.90;;
54917;SDS011;40818;50.562;7.454;2024-02-21T10:32:26;11.77;;;1.10;;
54917;SDS011;40818;50.562;7.454;2024-02-21T10:42:30;7.30;;;1.00;;
54917;SDS011;40818;50.562;7.454;2024-02-21T10:52:42;5.43;;;1.20;;
54917;SDS011;40818;50.562;7.454;2024-02-21T11:02:51;11.10;;;1.10;;
54917;SDS011;40818;50.562;7.454;2024-02-21T11:13:07;13.15;;;1.45;;
54917;SDS011;40818;50.562;7.454;2024-02-21T11:23:11;6.28;;;0.90;;
54917;SDS011;40818;50.562;7.454;2024-02-21T11:33:17;8.63;;;0.88;;
54917;SDS011;40818;50.562;7.454;2024-02-21T11:43:20;6.30;;;0.90;;
54917;SDS011;40818;50.562;7.454;2024-02-21T11:53:26;8.90;;;0.82;;
54917;SDS011;40818;50.562;7.454;2024-02-21T12:03:31;5.78;;;0.70;;
54917;SDS011;40818;50.562;7.454;2024-02-21T12:13:38;10.35;;;0.80;;
54917;SDS011;40818;50.562;7.454;2024-02-21T12:23:41;5.68;;;0.70;;
54917;SDS011;40818;50.562;7.454;2024-02-21T12:33:49;4.15;;;0.88;;
54917;SDS011;40818;50.562;7.454;2024-02-21T12:43:53;7.22;;;0.70;;
54917;SDS011;40818;50.562;7.454;2024-02-21T12:53:59;6.75;;;0.60;;
54917;SDS011;40818;50.562;7.454;2024-02-21T13:04:03;10.10;;;0.60;;
54917;SDS011;40818;50.562;7.454;2024-02-21T13:14:10;4.78;;;1.02;;
54917;SDS011;40818;50.562;7.454;2024-02-21T13:24:13;7.40;;;0.60;;
54917;SDS011;40818;50.562;7.454;2024-02-21T13:34:20;6.47;;;0.63;;
54917;SDS011;40818;50.562;7.454;2024-02-21T13:44:23;4.88;;;0.60;;
54917;SDS011;40818;50.562;7.454;2024-02-21T13:54:29;2.78;;;0.40;;
54917;SDS011;40818;50.562;7.454;2024-02-21T14:04:33;6.20;;;0.50;;
54917;SDS011;40818;50.562;7.454;2024-02-21T14:14:39;4.47;;;0.50;;
54917;SDS011;40818;50.562;7.454;2024-02-21T14:24:43;4.47;;;0.40;;
54917;SDS011;40818;50.562;7.454;2024-02-21T14:34:50;3.80;;;0.45;;
54917;SDS011;40818;50.562;7.454;2024-02-21T14:44:54;4.68;;;0.30;;
54917;SDS011;40818;50.562;7.454;2024-02-21T14:55:06;2.60;;;0.40;;
54917;SDS011;40818;50.562;7.454;2024-02-21T15:05:10;2.10;;;0.30;;
54917;SDS011;40818;50.562;7.454;2024-02-21T15:15:17;1.77;;;0.30;;
54917;SDS011;40818;50.562;7.454;2024-02-21T15:25:20;5.30;;;0.40;;
54917;SDS011;40818;50.562;7.454;2024-02-21T15:35:26;5.03;;;0.30;;
54917;SDS011;40818;50.562;7.454;2024-02-21T15:45:30;10.88;;;0.50;;
54917;SDS011;40818;50.562;7.454;2024-02-21T15:55:36;2.65;;;0.30;;
54917;SDS011;40818;50.562;7.454;2024-02-21T16:05:40;4.30;;;0.52;;
54917;SDS011;40818;50.562;7.454;2024-02-21T16:15:47;4.32;;;0.35;;
54917;SDS011;40818;50.562;7.454;2024-02-21T16:25:50;2.33;;;0.30;;
54917;SDS011;40818;50.562;7.454;2024-02-21T16:35:56;3.22;;;0.35;;
54917;SDS011;40818;50.562;7.454;2024-02-21T16:46:00;5.45;;;0.50;;
54917;SDS011;40818;50.562;7.454;2024-02-21T16:56:06;3.50;;;0.32;;
54917;SDS011;40818;50.562;7.454;2024-02-21T17:06:11;5.47;;;0.40;;
54917;SDS011;40818;50.562;7.454;2024-02-21T17:16:18;4.68;;;0.52;;
54917;SDS011;40818;50.562;7.454;2024-02-21T17:26:21;3.72;;;0.45;;
54917;SDS011;40818;50.562;7.454;2024-02-21T17:36:29;6.38;;;0.50;;
54917;SDS011;40818;50.562;7.454;2024-02-21T17:46:32;2.35;;;0.65;;
54917;SDS011;40818;50.562;7.454;2024-02-21T17:56:44;4.25;;;0.50;;
54917;SDS011;40818;50.562;7.454;2024-02-21T18:06:48;5.65;;;0.63;;
54917;SDS011;40818;50.562;7.454;2024-02-21T18:16:54;5.03;;;0.45;;
54917;SDS011;40818;50.562;7.454;2024-02-21T18:26:58;11.43;;;0.80;;
54917;SDS011;40818;50.562;7.454;2024-02-21T18:37:04;4.53;;;0.50;;
54917;SDS011;40818;50.562;7.454;2024-02-21T18:47:07;10.05;;;0.50;;
54917;SDS011;40818;50.562;7.454;2024-02-21T18:57:16;6.93;;;1.15;;
54917;SDS011;40818;50.562;7.454;2024-02-21T19:07:20;3.70;;;0.60;;
54917;SDS011;40818;50.562;7.454;2024-02-21T19:17:26;3.65;;;0.40;;
54917;SDS011;40818;50.562;7.454;2024-02-21T19:27:29;2.80;;;0.52;;
54917;SDS011;40818;50.562;7.454;2024-02-21T19:37:35;5.72;;;0.50;;
54917;SDS011;40818;50.562;7.454;2024-02-21T19:47:39;2.40;;;0.43;;
54917;SDS011;40818;50.562;7.454;2024-02-21T19:57:46;3.08;;;0.60;;
54917;SDS011;40818;50.562;7.454;2024-02-21T20:07:50;3.15;;;0.40;;
54917;SDS011;40818;50.562;7.454;2024-02-21T20:17:56;1.80;;;0.40;;
54917;SDS011;40818;50.562;7.454;2024-02-21T20:28:00;3.33;;;0.50;;
54917;SDS011;40818;50.562;7.454;2024-02-21T20:38:06;3.55;;;0.50;;
54917;SDS011;40818;50.562;7.454;2024-02-21T20:48:10;5.07;;;0.60;;
54917;SDS011;40818;50.562;7.454;2024-02-21T20:58:16;2.10;;;0.45;;
54917;SDS011;40818;50.562;7.454;2024-02-21T21:08:19;1.83;;;0.40;;
54917;SDS011;40818;50.562;7.454;2024-02-21T21:18:25;1.42;;;0.47;;
54917;SDS011;40818;50.562;7.454;2024-02-21T21:28:31;2.30;;;0.60;;
54917;SDS011;40818;50.562;7.454;2024-02-21T21:38:37;1.85;;;0.57;;
54917;SDS011;40818;50.562;7.454;2024-02-21T21:48:41;2.30;;;0.63;;
54917;SDS011;40818;50.562;7.454;2024-02-21T21:58:47;2.72;;;0.60;;
54917;SDS011;40818;50.562;7.454;2024-02-21T22:08:51;2.15;;;0.40;;
54917;SDS011;40818;50.562;7.454;2024-02-21T22:18:57;1.60;;;0.40;;
54917;SDS011;40818;50.562;7.454;2024-02-21T22:29:02;2.63;;;0.50;;
54917;SDS011;40818;50.562;7.454;2024-02-21T22:39:08;2.28;;;0.95;;
54917;SDS011;40818;50.562;7.454;2024-02-21T22:49:11;1.30;;;0.50;;
54917;SDS011;40818;50.562;7.454;2024-02-21T22:59:17;1.15;;;0.40;;
54917;SDS011;40818;50.562;7.454;2024-02-21T23:09:21;5.55;;;1.00;;
54917;SDS011;40818;50.562;7.454;2024-02-21T23:19:27;1.10;;;0.30;;
54917;SDS011;40818;50.562;7.454;2024-02-21T23:29:30;1.17;;;0.30;;
54917;SDS011;40818;50.562;7.454;2024-02-21T23:39:36;0.95;;;0.30;;
54917;SDS011;40818;50.562;7.454;2024-02-21T23:49:40;0.77;;;0.30;;
54917;SDS011;40818;50.562;7.454;2024-02-21T23:59:46;0.68;;;0.30;;
